sensor_id;sensor_type;location;lat;lon;timestamp;temperature;humidity
23475;DHT22;11910;52.086;21.066;2024-01-06T00:01:01;0.90;99.90
23475;DHT22;11910;52.086;21.066;2024-01-06T00:03:26;0.90;99.90
23475;DHT22;11910;52.086;21.066;2024-01-06T00:05:52;1.00;99.90
23475;DHT22;11910;52.086;21.066;2024-01-06T00:08:18;1.00;99.90
23475;DHT22;11910;52.086;21.066;2024-01-06T00:10:43;1.00;99.90
23475;DHT22;11910;52.086;21.066;2024-01-06T00:13:10;1.00;99.90
23475;DHT22;11910;52.086;21.066;2024-01-06T00:15:36;1.00;99.90
23475;DHT22;11910;52.086;21.066;2024-01-06T00:18:02;1.00;99.90
23475;DHT22;11910;52.086;21.066;2024-01-06T00:20:27;0.90;99.90
23475;DHT22;11910;52.086;21.066;2024-01-06T00:22:53;1.00;99.90
23475;DHT22;11910;52.086;21.066;2024-01-06T00:25:19;1.00;99.90
23475;DHT22;11910;52.086;21.066;2024-01-06T00:27:44;0.90;99.90
23475;DHT22;11910;52.086;21.066;2024-01-06T00:30:10;0.90;99.90
23475;DHT22;11910;52.086;21.066;2024-01-06T00:32:36;0.90;99.90
23475;DHT22;11910;52.086;21.066;2024-01-06T00:35:01;0.90;99.90
23475;DHT22;11910;52.086;21.066;2024-01-06T00:37:27;0.90;99.90
23475;DHT22;11910;52.086;21.066;2024-01-06T00:39:53;0.90;99.90
23475;DHT22;11910;52.086;21.066;2024-01-06T00:42:19;0.90;99.90
23475;DHT22;11910;52.086;21.066;2024-01-06T00:44:44;0.90;99.90
23475;DHT22;11910;52.086;21.066;2024-01-06T00:47:11;0.90;99.90
23475;DHT22;11910;52.086;21.066;2024-01-06T00:49:36;0.90;99.90
23475;DHT22;11910;52.086;21.066;2024-01-06T00:52:02;0.90;99.90
23475;DHT22;11910;52.086;21.066;2024-01-06T00:54:28;0.90;99.90
23475;DHT22;11910;52.086;21.066;2024-01-06T00:56:54;0.90;99.90
23475;DHT22;11910;52.086;21.066;2024-01-06T00:59:19;0.80;99.90
23475;DHT22;11910;52.086;21.066;2024-01-06T01:01:45;0.80;99.90
23475;DHT22;11910;52.086;21.066;2024-01-06T01:04:10;0.80;99.90
23475;DHT22;11910;52.086;21.066;2024-01-06T01:06:37;0.80;99.90
23475;DHT22;11910;52.086;21.066;2024-01-06T01:09:03;0.70;99.90
23475;DHT22;11910;52.086;21.066;2024-01-06T01:11:30;0.70;99.90
23475;DHT22;11910;52.086;21.066;2024-01-06T01:13:55;0.80;99.90
23475;DHT22;11910;52.086;21.066;2024-01-06T01:16:21;0.80;99.90
23475;DHT22;11910;52.086;21.066;2024-01-06T01:18:46;0.80;99.90
23475;DHT22;11910;52.086;21.066;2024-01-06T01:21:12;0.80;99.90
23475;DHT22;11910;52.086;21.066;2024-01-06T01:23:38;0.80;99.90
23475;DHT22;11910;52.086;21.066;2024-01-06T01:26:03;0.80;99.90
23475;DHT22;11910;52.086;21.066;2024-01-06T01:28:29;0.80;99.90
23475;DHT22;11910;52.086;21.066;2024-01-06T01:30:54;0.70;99.90
23475;DHT22;11910;52.086;21.066;2024-01-06T01:33:20;0.70;99.90
23475;DHT22;11910;52.086;21.066;2024-01-06T01:35:45;0.70;99.90
23475;DHT22;11910;52.086;21.066;2024-01-06T01:38:11;0.70;99.90
23475;DHT22;11910;52.086;21.066;2024-01-06T01:40:37;0.70;99.90
23475;DHT22;11910;52.086;21.066;2024-01-06T01:43:02;0.70;99.90
23475;DHT22;11910;52.086;21.066;2024-01-06T01:45:28;0.70;99.90
23475;DHT22;11910;52.086;21.066;2024-01-06T01:47:53;0.70;99.90
23475;DHT22;11910;52.086;21.066;2024-01-06T01:50:19;0.70;99.90
23475;DHT22;11910;52.086;21.066;2024-01-06T01:52:45;0.60;99.90
23475;DHT22;11910;52.086;21.066;2024-01-06T01:55:11;0.70;99.90
23475;DHT22;11910;52.086;21.066;2024-01-06T01:57:37;0.70;99.90
23475;DHT22;11910;52.086;21.066;2024-01-06T02:00:03;0.70;99.90
23475;DHT22;11910;52.086;21.066;2024-01-06T02:02:29;0.70;99.90
23475;DHT22;11910;52.086;21.066;2024-01-06T02:04:56;0.70;99.90
23475;DHT22;11910;52.086;21.066;2024-01-06T02:07:21;0.80;99.90
23475;DHT22;11910;52.086;21.066;2024-01-06T02:09:47;0.80;99.90
23475;DHT22;11910;52.086;21.066;2024-01-06T02:12:13;0.70;99.90
23475;DHT22;11910;52.086;21.066;2024-01-06T02:14:38;0.70;99.90
23475;DHT22;11910;52.086;21.066;2024-01-06T02:17:04;0.80;99.90
23475;DHT22;11910;52.086;21.066;2024-01-06T02:19:29;0.80;99.90
23475;DHT22;11910;52.086;21.066;2024-01-06T02:21:55;0.80;99.90
23475;DHT22;11910;52.086;21.066;2024-01-06T02:24:21;0.80;99.90
23475;DHT22;11910;52.086;21.066;2024-01-06T02:26:46;0.90;99.90
23475;DHT22;11910;52.086;21.066;2024-01-06T02:29:12;0.90;99.90
23475;DHT22;11910;52.086;21.066;2024-01-06T02:31:38;0.90;99.90
23475;DHT22;11910;52.086;21.066;2024-01-06T02:34:03;0.90;99.90
23475;DHT22;11910;52.086;21.066;2024-01-06T02:36:29;0.90;99.90
23475;DHT22;11910;52.086;21.066;2024-01-06T02:38:54;0.80;99.90
23475;DHT22;11910;52.086;21.066;2024-01-06T02:41:20;0.80;99.90
23475;DHT22;11910;52.086;21.066;2024-01-06T02:43:46;0.80;99.90
23475;DHT22;11910;52.086;21.066;2024-01-06T02:46:12;0.80;99.90
23475;DHT22;11910;52.086;21.066;2024-01-06T02:48:38;0.80;99.90
23475;DHT22;11910;52.086;21.066;2024-01-06T02:51:03;0.80;99.90
23475;DHT22;11910;52.086;21.066;2024-01-06T02:53:29;0.80;99.90
23475;DHT22;11910;52.086;21.066;2024-01-06T02:55:54;0.80;99.90
23475;DHT22;11910;52.086;21.066;2024-01-06T02:58:20;0.80;99.90
23475;DHT22;11910;52.086;21.066;2024-01-06T03:00:46;0.80;99.90
23475;DHT22;11910;52.086;21.066;2024-01-06T03:03:11;0.80;99.90
23475;DHT22;11910;52.086;21.066;2024-01-06T03:05:37;0.80;99.90
23475;DHT22;11910;52.086;21.066;2024-01-06T03:08:03;0.80;99.90
23475;DHT22;11910;52.086;21.066;2024-01-06T03:10:29;0.70;99.90
23475;DHT22;11910;52.086;21.066;2024-01-06T03:12:54;0.80;99.90
23475;DHT22;11910;52.086;21.066;2024-01-06T03:15:20;0.80;99.90
23475;DHT22;11910;52.086;21.066;2024-01-06T03:17:46;0.80;99.90
23475;DHT22;11910;52.086;21.066;2024-01-06T03:20:11;0.80;99.90
23475;DHT22;11910;52.086;21.066;2024-01-06T03:22:37;0.80;99.90
23475;DHT22;11910;52.086;21.066;2024-01-06T03:25:03;0.80;99.90
23475;DHT22;11910;52.086;21.066;2024-01-06T03:27:29;0.80;99.90
23475;DHT22;11910;52.086;21.066;2024-01-06T03:29:55;0.80;99.90
23475;DHT22;11910;52.086;21.066;2024-01-06T03:32:21;0.80;99.90
23475;DHT22;11910;52.086;21.066;2024-01-06T03:34:46;0.70;99.90
23475;DHT22;11910;52.086;21.066;2024-01-06T03:37:12;0.70;99.90
23475;DHT22;11910;52.086;21.066;2024-01-06T03:39:38;0.70;99.90
23475;DHT22;11910;52.086;21.066;2024-01-06T03:42:03;0.70;99.90
23475;DHT22;11910;52.086;21.066;2024-01-06T03:44:29;0.60;99.90
23475;DHT22;11910;52.086;21.066;2024-01-06T03:46:56;0.70;99.90
23475;DHT22;11910;52.086;21.066;2024-01-06T03:49:26;0.70;99.90
23475;DHT22;11910;52.086;21.066;2024-01-06T03:51:52;0.70;99.90
23475;DHT22;11910;52.086;21.066;2024-01-06T03:54:17;0.70;99.90
23475;DHT22;11910;52.086;21.066;2024-01-06T03:56:43;0.70;99.90
23475;DHT22;11910;52.086;21.066;2024-01-06T03:59:09;0.70;99.90
23475;DHT22;11910;52.086;21.066;2024-01-06T04:01:34;0.70;99.90
23475;DHT22;11910;52.086;21.066;2024-01-06T04:04:05;0.70;99.90
23475;DHT22;11910;52.086;21.066;2024-01-06T04:06:31;0.70;99.90
23475;DHT22;11910;52.086;21.066;2024-01-06T04:08:57;0.80;99.90
23475;DHT22;11910;52.086;21.066;2024-01-06T04:11:23;0.80;99.90
23475;DHT22;11910;52.086;21.066;2024-01-06T04:13:49;0.70;99.90
23475;DHT22;11910;52.086;21.066;2024-01-06T04:16:14;0.70;99.90
23475;DHT22;11910;52.086;21.066;2024-01-06T04:18:40;0.80;99.90
23475;DHT22;11910;52.086;21.066;2024-01-06T04:21:05;0.80;99.90
23475;DHT22;11910;52.086;21.066;2024-01-06T04:23:31;0.80;99.90
23475;DHT22;11910;52.086;21.066;2024-01-06T04:25:57;0.80;99.90
23475;DHT22;11910;52.086;21.066;2024-01-06T04:28:22;0.80;99.90
23475;DHT22;11910;52.086;21.066;2024-01-06T04:30:48;0.80;99.90
23475;DHT22;11910;52.086;21.066;2024-01-06T04:33:14;0.80;99.90
23475;DHT22;11910;52.086;21.066;2024-01-06T04:35:39;0.80;99.90
23475;DHT22;11910;52.086;21.066;2024-01-06T04:38:05;0.80;99.90
23475;DHT22;11910;52.086;21.066;2024-01-06T04:40:31;0.80;99.90
23475;DHT22;11910;52.086;21.066;2024-01-06T04:42:56;0.80;99.90
23475;DHT22;11910;52.086;21.066;2024-01-06T04:45:22;0.80;99.90
23475;DHT22;11910;52.086;21.066;2024-01-06T04:47:50;0.90;99.90
23475;DHT22;11910;52.086;21.066;2024-01-06T04:50:15;0.90;99.90
23475;DHT22;11910;52.086;21.066;2024-01-06T04:52:41;0.80;99.90
23475;DHT22;11910;52.086;21.066;2024-01-06T04:55:06;0.80;99.90
23475;DHT22;11910;52.086;21.066;2024-01-06T04:57:32;0.80;99.90
23475;DHT22;11910;52.086;21.066;2024-01-06T04:59:58;0.80;99.90
23475;DHT22;11910;52.086;21.066;2024-01-06T05:02:23;0.90;99.90
23475;DHT22;11910;52.086;21.066;2024-01-06T05:04:49;0.90;99.90
23475;DHT22;11910;52.086;21.066;2024-01-06T05:07:15;0.90;99.90
23475;DHT22;11910;52.086;21.066;2024-01-06T05:09:40;0.90;99.90
23475;DHT22;11910;52.086;21.066;2024-01-06T05:12:06;0.90;99.90
23475;DHT22;11910;52.086;21.066;2024-01-06T05:14:32;0.90;99.90
23475;DHT22;11910;52.086;21.066;2024-01-06T05:16:57;0.80;99.90
23475;DHT22;11910;52.086;21.066;2024-01-06T05:19:23;0.80;99.90
23475;DHT22;11910;52.086;21.066;2024-01-06T05:21:49;0.80;99.90
23475;DHT22;11910;52.086;21.066;2024-01-06T05:24:14;0.70;99.90
23475;DHT22;11910;52.086;21.066;2024-01-06T05:26:40;0.70;99.90
23475;DHT22;11910;52.086;21.066;2024-01-06T05:29:06;0.70;99.90
23475;DHT22;11910;52.086;21.066;2024-01-06T05:31:31;0.70;99.90
23475;DHT22;11910;52.086;21.066;2024-01-06T05:33:57;0.70;99.90
23475;DHT22;11910;52.086;21.066;2024-01-06T05:36:22;0.70;99.90
23475;DHT22;11910;52.086;21.066;2024-01-06T05:38:48;0.70;99.90
23475;DHT22;11910;52.086;21.066;2024-01-06T05:41:14;0.70;99.90
23475;DHT22;11910;52.086;21.066;2024-01-06T05:43:39;0.70;99.90
23475;DHT22;11910;52.086;21.066;2024-01-06T05:46:05;0.70;99.90
23475;DHT22;11910;52.086;21.066;2024-01-06T05:48:30;0.70;99.90
23475;DHT22;11910;52.086;21.066;2024-01-06T05:50:57;0.70;99.90
23475;DHT22;11910;52.086;21.066;2024-01-06T05:53:23;0.70;99.90
23475;DHT22;11910;52.086;21.066;2024-01-06T05:55:48;0.70;99.90
23475;DHT22;11910;52.086;21.066;2024-01-06T05:58:14;0.70;99.90
23475;DHT22;11910;52.086;21.066;2024-01-06T06:00:39;0.80;99.90
23475;DHT22;11910;52.086;21.066;2024-01-06T06:03:05;0.80;99.90
23475;DHT22;11910;52.086;21.066;2024-01-06T06:05:33;0.80;99.90
23475;DHT22;11910;52.086;21.066;2024-01-06T06:07:58;0.80;99.90
23475;DHT22;11910;52.086;21.066;2024-01-06T06:10:24;0.80;99.90
23475;DHT22;11910;52.086;21.066;2024-01-06T06:12:55;0.90;99.90
23475;DHT22;11910;52.086;21.066;2024-01-06T06:15:21;0.90;99.90
23475;DHT22;11910;52.086;21.066;2024-01-06T06:17:46;0.90;99.90
23475;DHT22;11910;52.086;21.066;2024-01-06T06:20:12;0.80;99.90
23475;DHT22;11910;52.086;21.066;2024-01-06T06:22:37;0.80;99.90
23475;DHT22;11910;52.086;21.066;2024-01-06T06:25:03;0.80;99.90
23475;DHT22;11910;52.086;21.066;2024-01-06T06:27:29;0.90;99.90
23475;DHT22;11910;52.086;21.066;2024-01-06T06:29:55;0.90;99.90
23475;DHT22;11910;52.086;21.066;2024-01-06T06:32:21;0.90;99.90
23475;DHT22;11910;52.086;21.066;2024-01-06T06:34:47;0.90;99.90
23475;DHT22;11910;52.086;21.066;2024-01-06T06:37:12;0.90;99.90
23475;DHT22;11910;52.086;21.066;2024-01-06T06:39:38;0.90;99.90
23475;DHT22;11910;52.086;21.066;2024-01-06T06:42:04;0.80;99.90
23475;DHT22;11910;52.086;21.066;2024-01-06T06:44:29;0.80;99.90
23475;DHT22;11910;52.086;21.066;2024-01-06T06:46:55;0.90;99.90
23475;DHT22;11910;52.086;21.066;2024-01-06T06:49:21;0.90;99.90
23475;DHT22;11910;52.086;21.066;2024-01-06T06:51:47;0.90;99.90
23475;DHT22;11910;52.086;21.066;2024-01-06T06:54:14;0.90;99.90
23475;DHT22;11910;52.086;21.066;2024-01-06T06:56:43;0.90;99.90
23475;DHT22;11910;52.086;21.066;2024-01-06T06:59:09;0.90;99.90
23475;DHT22;11910;52.086;21.066;2024-01-06T07:01:35;0.90;99.90
23475;DHT22;11910;52.086;21.066;2024-01-06T07:04:01;1.00;99.90
23475;DHT22;11910;52.086;21.066;2024-01-06T07:06:27;1.00;99.90
23475;DHT22;11910;52.086;21.066;2024-01-06T07:08:54;0.90;99.90
23475;DHT22;11910;52.086;21.066;2024-01-06T07:11:19;1.00;99.90
23475;DHT22;11910;52.086;21.066;2024-01-06T07:13:45;1.00;99.90
23475;DHT22;11910;52.086;21.066;2024-01-06T07:16:10;0.90;99.90
23475;DHT22;11910;52.086;21.066;2024-01-06T07:18:37;0.90;99.90
23475;DHT22;11910;52.086;21.066;2024-01-06T07:21:05;0.90;99.90
23475;DHT22;11910;52.086;21.066;2024-01-06T07:23:32;0.80;99.90
23475;DHT22;11910;52.086;21.066;2024-01-06T07:25:58;0.80;99.90
23475;DHT22;11910;52.086;21.066;2024-01-06T07:28:23;0.80;99.90
23475;DHT22;11910;52.086;21.066;2024-01-06T07:30:49;0.90;99.90
23475;DHT22;11910;52.086;21.066;2024-01-06T07:33:14;0.90;99.90
23475;DHT22;11910;52.086;21.066;2024-01-06T07:35:40;0.90;99.90
23475;DHT22;11910;52.086;21.066;2024-01-06T07:38:09;0.90;99.90
23475;DHT22;11910;52.086;21.066;2024-01-06T07:40:36;1.00;99.90
23475;DHT22;11910;52.086;21.066;2024-01-06T07:43:01;1.00;99.90
23475;DHT22;11910;52.086;21.066;2024-01-06T07:45:27;1.00;99.90
23475;DHT22;11910;52.086;21.066;2024-01-06T07:47:53;1.00;99.90
23475;DHT22;11910;52.086;21.066;2024-01-06T07:50:18;1.10;99.90
23475;DHT22;11910;52.086;21.066;2024-01-06T07:52:44;1.10;99.90
23475;DHT22;11910;52.086;21.066;2024-01-06T07:55:09;1.20;99.90
23475;DHT22;11910;52.086;21.066;2024-01-06T07:57:35;1.20;99.90
23475;DHT22;11910;52.086;21.066;2024-01-06T08:00:00;1.30;99.90
23475;DHT22;11910;52.086;21.066;2024-01-06T08:02:26;1.30;99.90
23475;DHT22;11910;52.086;21.066;2024-01-06T08:04:52;1.30;99.90
23475;DHT22;11910;52.086;21.066;2024-01-06T08:07:19;1.30;99.90
23475;DHT22;11910;52.086;21.066;2024-01-06T08:09:44;1.30;99.90
23475;DHT22;11910;52.086;21.066;2024-01-06T08:12:10;1.20;99.90
23475;DHT22;11910;52.086;21.066;2024-01-06T08:14:35;1.30;99.90
23475;DHT22;11910;52.086;21.066;2024-01-06T08:17:01;1.20;99.90
23475;DHT22;11910;52.086;21.066;2024-01-06T08:19:27;1.20;99.90
23475;DHT22;11910;52.086;21.066;2024-01-06T08:21:55;1.20;99.90
23475;DHT22;11910;52.086;21.066;2024-01-06T08:24:20;1.20;99.90
23475;DHT22;11910;52.086;21.066;2024-01-06T08:26:46;1.20;99.90
23475;DHT22;11910;52.086;21.066;2024-01-06T08:29:13;1.20;99.90
23475;DHT22;11910;52.086;21.066;2024-01-06T08:31:40;1.20;99.90
23475;DHT22;11910;52.086;21.066;2024-01-06T08:34:05;1.20;99.90
23475;DHT22;11910;52.086;21.066;2024-01-06T08:36:33;1.20;99.90
23475;DHT22;11910;52.086;21.066;2024-01-06T08:38:59;1.20;99.90
23475;DHT22;11910;52.086;21.066;2024-01-06T08:41:24;1.30;99.90
23475;DHT22;11910;52.086;21.066;2024-01-06T08:43:51;1.30;99.90
23475;DHT22;11910;52.086;21.066;2024-01-06T08:46:16;1.20;99.90
23475;DHT22;11910;52.086;21.066;2024-01-06T08:48:42;1.20;99.90
23475;DHT22;11910;52.086;21.066;2024-01-06T08:51:08;1.20;99.90
23475;DHT22;11910;52.086;21.066;2024-01-06T08:53:33;1.20;99.90
23475;DHT22;11910;52.086;21.066;2024-01-06T08:55:59;1.30;99.90
23475;DHT22;11910;52.086;21.066;2024-01-06T08:58:24;1.30;99.90
23475;DHT22;11910;52.086;21.066;2024-01-06T09:00:50;1.30;99.90
23475;DHT22;11910;52.086;21.066;2024-01-06T09:03:16;1.30;99.90
23475;DHT22;11910;52.086;21.066;2024-01-06T09:05:42;1.30;99.90
23475;DHT22;11910;52.086;21.066;2024-01-06T09:08:07;1.40;99.90
23475;DHT22;11910;52.086;21.066;2024-01-06T09:10:33;1.40;99.90
23475;DHT22;11910;52.086;21.066;2024-01-06T09:12:59;1.50;99.90
23475;DHT22;11910;52.086;21.066;2024-01-06T09:15:25;1.50;99.90
23475;DHT22;11910;52.086;21.066;2024-01-06T09:17:51;1.60;99.90
23475;DHT22;11910;52.086;21.066;2024-01-06T09:20:16;1.60;99.90
23475;DHT22;11910;52.086;21.066;2024-01-06T09:22:43;1.60;99.90
23475;DHT22;11910;52.086;21.066;2024-01-06T09:25:08;1.50;99.90
23475;DHT22;11910;52.086;21.066;2024-01-06T09:27:34;1.50;99.90
23475;DHT22;11910;52.086;21.066;2024-01-06T09:30:00;1.50;99.90
23475;DHT22;11910;52.086;21.066;2024-01-06T09:32:26;1.60;99.90
23475;DHT22;11910;52.086;21.066;2024-01-06T09:34:51;1.50;99.90
23475;DHT22;11910;52.086;21.066;2024-01-06T09:37:17;1.60;99.90
23475;DHT22;11910;52.086;21.066;2024-01-06T09:39:43;1.60;99.90
23475;DHT22;11910;52.086;21.066;2024-01-06T09:42:08;1.50;99.90
23475;DHT22;11910;52.086;21.066;2024-01-06T09:44:34;1.60;99.90
23475;DHT22;11910;52.086;21.066;2024-01-06T09:47:01;1.60;99.90
23475;DHT22;11910;52.086;21.066;2024-01-06T09:49:30;1.60;99.90
23475;DHT22;11910;52.086;21.066;2024-01-06T09:51:58;1.60;99.90
23475;DHT22;11910;52.086;21.066;2024-01-06T09:54:25;1.60;99.90
23475;DHT22;11910;52.086;21.066;2024-01-06T09:56:55;1.60;99.90
23475;DHT22;11910;52.086;21.066;2024-01-06T09:59:22;1.60;99.90
23475;DHT22;11910;52.086;21.066;2024-01-06T10:01:48;1.70;99.90
23475;DHT22;11910;52.086;21.066;2024-01-06T10:04:15;1.70;99.90
23475;DHT22;11910;52.086;21.066;2024-01-06T10:06:41;1.70;99.90
23475;DHT22;11910;52.086;21.066;2024-01-06T10:09:07;1.70;99.90
23475;DHT22;11910;52.086;21.066;2024-01-06T10:11:35;1.70;99.90
23475;DHT22;11910;52.086;21.066;2024-01-06T10:14:03;1.70;99.90
23475;DHT22;11910;52.086;21.066;2024-01-06T10:16:28;1.80;99.90
23475;DHT22;11910;52.086;21.066;2024-01-06T10:18:54;1.80;99.90
23475;DHT22;11910;52.086;21.066;2024-01-06T10:21:21;1.80;99.90
23475;DHT22;11910;52.086;21.066;2024-01-06T10:23:48;1.80;99.90
23475;DHT22;11910;52.086;21.066;2024-01-06T10:26:13;1.80;99.90
23475;DHT22;11910;52.086;21.066;2024-01-06T10:28:39;1.80;99.90
23475;DHT22;11910;52.086;21.066;2024-01-06T10:31:08;1.80;99.90
23475;DHT22;11910;52.086;21.066;2024-01-06T10:33:34;1.80;99.90
23475;DHT22;11910;52.086;21.066;2024-01-06T10:36:00;1.80;99.90
23475;DHT22;11910;52.086;21.066;2024-01-06T10:38:29;1.80;99.90
23475;DHT22;11910;52.086;21.066;2024-01-06T10:40:58;1.70;99.90
23475;DHT22;11910;52.086;21.066;2024-01-06T10:43:27;1.70;99.90
23475;DHT22;11910;52.086;21.066;2024-01-06T10:45:56;1.70;99.90
23475;DHT22;11910;52.086;21.066;2024-01-06T10:48:24;1.70;99.90
23475;DHT22;11910;52.086;21.066;2024-01-06T10:50:55;1.70;99.90
23475;DHT22;11910;52.086;21.066;2024-01-06T10:53:21;1.80;99.90
23475;DHT22;11910;52.086;21.066;2024-01-06T10:55:49;1.70;99.90
23475;DHT22;11910;52.086;21.066;2024-01-06T10:58:17;1.80;99.90
23475;DHT22;11910;52.086;21.066;2024-01-06T11:00:43;1.70;99.90
23475;DHT22;11910;52.086;21.066;2024-01-06T11:03:09;1.70;99.90
23475;DHT22;11910;52.086;21.066;2024-01-06T11:05:36;1.60;99.90
23475;DHT22;11910;52.086;21.066;2024-01-06T11:08:06;1.70;99.90
23475;DHT22;11910;52.086;21.066;2024-01-06T11:10:32;1.70;99.90
23475;DHT22;11910;52.086;21.066;2024-01-06T11:15:41;1.60;99.90
23475;DHT22;11910;52.086;21.066;2024-01-06T11:18:07;1.60;99.90
23475;DHT22;11910;52.086;21.066;2024-01-06T11:20:33;1.60;99.90
23475;DHT22;11910;52.086;21.066;2024-01-06T11:23:19;1.60;99.90
23475;DHT22;11910;52.086;21.066;2024-01-06T11:25:47;1.60;99.90
23475;DHT22;11910;52.086;21.066;2024-01-06T11:28:13;1.60;99.90
23475;DHT22;11910;52.086;21.066;2024-01-06T11:30:39;1.60;99.90
23475;DHT22;11910;52.086;21.066;2024-01-06T11:33:05;1.60;99.90
23475;DHT22;11910;52.086;21.066;2024-01-06T11:35:31;1.60;99.90
23475;DHT22;11910;52.086;21.066;2024-01-06T11:38:00;1.60;99.90
23475;DHT22;11910;52.086;21.066;2024-01-06T11:40:35;1.60;99.90
23475;DHT22;11910;52.086;21.066;2024-01-06T11:45:32;1.50;99.90
23475;DHT22;11910;52.086;21.066;2024-01-06T11:48:00;1.50;99.90
23475;DHT22;11910;52.086;21.066;2024-01-06T11:50:27;1.60;99.90
23475;DHT22;11910;52.086;21.066;2024-01-06T11:52:53;1.60;99.90
23475;DHT22;11910;52.086;21.066;2024-01-06T11:55:20;1.60;99.90
23475;DHT22;11910;52.086;21.066;2024-01-06T11:57:46;1.60;99.90
23475;DHT22;11910;52.086;21.066;2024-01-06T12:00:16;1.60;99.90
23475;DHT22;11910;52.086;21.066;2024-01-06T12:02:42;1.60;99.90
23475;DHT22;11910;52.086;21.066;2024-01-06T12:05:17;1.60;99.90
23475;DHT22;11910;52.086;21.066;2024-01-06T12:07:52;1.60;99.90
23475;DHT22;11910;52.086;21.066;2024-01-06T12:10:23;1.60;99.90
23475;DHT22;11910;52.086;21.066;2024-01-06T12:12:59;1.50;99.90
23475;DHT22;11910;52.086;21.066;2024-01-06T12:15:25;1.40;99.90
23475;DHT22;11910;52.086;21.066;2024-01-06T12:17:50;1.40;99.90
23475;DHT22;11910;52.086;21.066;2024-01-06T12:20:16;1.30;99.90
23475;DHT22;11910;52.086;21.066;2024-01-06T12:22:42;1.30;99.90
23475;DHT22;11910;52.086;21.066;2024-01-06T12:25:09;1.30;99.90
23475;DHT22;11910;52.086;21.066;2024-01-06T12:27:35;1.30;99.90
23475;DHT22;11910;52.086;21.066;2024-01-06T12:30:01;1.40;99.90
23475;DHT22;11910;52.086;21.066;2024-01-06T12:32:28;1.40;99.90
23475;DHT22;11910;52.086;21.066;2024-01-06T12:34:54;1.40;99.90
23475;DHT22;11910;52.086;21.066;2024-01-06T12:37:22;1.40;99.90
23475;DHT22;11910;52.086;21.066;2024-01-06T12:39:48;1.40;99.90
23475;DHT22;11910;52.086;21.066;2024-01-06T12:42:15;1.30;99.90
23475;DHT22;11910;52.086;21.066;2024-01-06T12:44:42;1.30;99.90
23475;DHT22;11910;52.086;21.066;2024-01-06T12:47:08;1.30;99.90
23475;DHT22;11910;52.086;21.066;2024-01-06T12:49:33;1.30;99.90
23475;DHT22;11910;52.086;21.066;2024-01-06T12:51:59;1.30;99.90
23475;DHT22;11910;52.086;21.066;2024-01-06T12:54:25;1.30;99.90
23475;DHT22;11910;52.086;21.066;2024-01-06T12:56:51;1.30;99.90
23475;DHT22;11910;52.086;21.066;2024-01-06T12:59:16;1.40;99.90
23475;DHT22;11910;52.086;21.066;2024-01-06T13:01:42;1.30;99.90
23475;DHT22;11910;52.086;21.066;2024-01-06T13:04:08;1.30;99.90
23475;DHT22;11910;52.086;21.066;2024-01-06T13:06:34;1.30;99.90
23475;DHT22;11910;52.086;21.066;2024-01-06T13:09:00;1.30;99.90
23475;DHT22;11910;52.086;21.066;2024-01-06T13:11:31;1.30;99.90
23475;DHT22;11910;52.086;21.066;2024-01-06T13:13:57;1.30;99.90
23475;DHT22;11910;52.086;21.066;2024-01-06T13:16:22;1.30;99.90
23475;DHT22;11910;52.086;21.066;2024-01-06T13:18:48;1.30;99.90
23475;DHT22;11910;52.086;21.066;2024-01-06T13:21:13;1.30;99.90
23475;DHT22;11910;52.086;21.066;2024-01-06T13:23:39;1.30;99.90
23475;DHT22;11910;52.086;21.066;2024-01-06T13:26:04;1.30;99.90
23475;DHT22;11910;52.086;21.066;2024-01-06T13:28:30;1.20;99.90
23475;DHT22;11910;52.086;21.066;2024-01-06T13:30:55;1.30;99.90
23475;DHT22;11910;52.086;21.066;2024-01-06T13:33:21;1.20;99.90
23475;DHT22;11910;52.086;21.066;2024-01-06T13:35:48;1.30;99.90
23475;DHT22;11910;52.086;21.066;2024-01-06T13:38:13;1.30;99.90
23475;DHT22;11910;52.086;21.066;2024-01-06T13:40:39;1.30;99.90
23475;DHT22;11910;52.086;21.066;2024-01-06T13:43:05;1.30;99.90
23475;DHT22;11910;52.086;21.066;2024-01-06T13:45:34;1.30;99.90
23475;DHT22;11910;52.086;21.066;2024-01-06T13:48:00;1.30;99.90
23475;DHT22;11910;52.086;21.066;2024-01-06T13:50:26;1.20;99.90
23475;DHT22;11910;52.086;21.066;2024-01-06T13:52:52;1.30;99.90
23475;DHT22;11910;52.086;21.066;2024-01-06T13:55:17;1.20;99.90
23475;DHT22;11910;52.086;21.066;2024-01-06T13:57:43;1.20;99.90
23475;DHT22;11910;52.086;21.066;2024-01-06T14:00:09;1.10;99.90
23475;DHT22;11910;52.086;21.066;2024-01-06T14:02:36;1.10;99.90
23475;DHT22;11910;52.086;21.066;2024-01-06T14:05:04;1.10;99.90
23475;DHT22;11910;52.086;21.066;2024-01-06T14:07:29;1.20;99.90
23475;DHT22;11910;52.086;21.066;2024-01-06T14:09:55;1.20;99.90
23475;DHT22;11910;52.086;21.066;2024-01-06T14:12:21;1.20;99.90
23475;DHT22;11910;52.086;21.066;2024-01-06T14:14:46;1.20;99.90
23475;DHT22;11910;52.086;21.066;2024-01-06T14:17:12;1.20;99.90
23475;DHT22;11910;52.086;21.066;2024-01-06T14:19:38;1.20;99.90
23475;DHT22;11910;52.086;21.066;2024-01-06T14:22:03;1.10;99.90
23475;DHT22;11910;52.086;21.066;2024-01-06T14:24:30;1.10;99.90
23475;DHT22;11910;52.086;21.066;2024-01-06T14:26:56;1.10;99.90
23475;DHT22;11910;52.086;21.066;2024-01-06T14:29:22;1.10;99.90
23475;DHT22;11910;52.086;21.066;2024-01-06T14:31:48;1.00;99.90
23475;DHT22;11910;52.086;21.066;2024-01-06T14:34:14;1.00;99.90
23475;DHT22;11910;52.086;21.066;2024-01-06T14:36:40;1.00;99.90
23475;DHT22;11910;52.086;21.066;2024-01-06T14:39:15;1.00;99.90
23475;DHT22;11910;52.086;21.066;2024-01-06T14:41:42;1.00;99.90
23475;DHT22;11910;52.086;21.066;2024-01-06T14:44:07;1.00;99.90
23475;DHT22;11910;52.086;21.066;2024-01-06T14:46:33;0.90;99.90
23475;DHT22;11910;52.086;21.066;2024-01-06T14:49:01;0.90;99.90
23475;DHT22;11910;52.086;21.066;2024-01-06T14:51:26;1.00;99.90
23475;DHT22;11910;52.086;21.066;2024-01-06T14:53:52;1.00;99.90
23475;DHT22;11910;52.086;21.066;2024-01-06T14:56:17;1.00;99.90
23475;DHT22;11910;52.086;21.066;2024-01-06T14:58:43;1.00;99.90
23475;DHT22;11910;52.086;21.066;2024-01-06T15:01:09;1.00;99.90
23475;DHT22;11910;52.086;21.066;2024-01-06T15:03:34;1.00;99.90
23475;DHT22;11910;52.086;21.066;2024-01-06T15:06:00;0.90;99.90
23475;DHT22;11910;52.086;21.066;2024-01-06T15:08:26;0.90;99.90
23475;DHT22;11910;52.086;21.066;2024-01-06T15:10:52;0.90;99.90
23475;DHT22;11910;52.086;21.066;2024-01-06T15:13:18;0.90;99.90
23475;DHT22;11910;52.086;21.066;2024-01-06T15:15:43;0.90;99.90
23475;DHT22;11910;52.086;21.066;2024-01-06T15:18:10;0.90;99.90
23475;DHT22;11910;52.086;21.066;2024-01-06T15:20:36;0.90;99.90
23475;DHT22;11910;52.086;21.066;2024-01-06T15:23:01;0.90;99.90
23475;DHT22;11910;52.086;21.066;2024-01-06T15:25:27;0.90;99.90
23475;DHT22;11910;52.086;21.066;2024-01-06T15:27:53;0.90;99.90